Richmond Square, Indiana
Current Conditions -  °F | °C
As of 4:35 PM on Thursday 27 Nov 2014 (Local Time) from KVES Reporting Station
Overcast Overcast  
Wind Chill: 18°   Ceiling: 2300
Heat Index: 30°   Visibility: 10mi
Dew Point: 25°   Wind: 18mph
Humidity: 80%   Direction: 290°WNW
Pressure: 30.27"   Gusts: 24mph
Location:  39.8311°N, 84.8879°W
Report Text: KVES 272135Z AUTO 29016G21KT 10SM OVC023 M01/M04 A3027 RMK AO2
Loading
Personal Weather Stations






























Interactive Weather Map New forecast layout! Learn more

10-Day Weather Forecast

Advertisements
Track Severe Weather on mobile